createdAt,value
2018-02-02T00:02:02.325Z,7.87
2018-02-02T00:04:30.314Z,8.27
2018-02-02T00:06:58.300Z,10.57
2018-02-02T00:09:27.008Z,10.25
2018-02-02T00:11:54.898Z,8.65
2018-02-02T00:14:22.885Z,9.20
2018-02-02T00:16:50.793Z,9.25
2018-02-02T00:19:18.762Z,8.65
2018-02-02T00:21:47.416Z,8.55
2018-02-02T00:24:15.858Z,8.77
2018-02-02T00:26:43.792Z,9.07
2018-02-02T00:29:12.530Z,9.63
2018-02-02T00:31:40.437Z,9.63
2018-02-02T00:34:08.408Z,8.80
2018-02-02T00:36:36.387Z,9.80
2018-02-02T00:39:05.186Z,8.70
2018-02-02T00:41:33.080Z,7.95
2018-02-02T00:44:01.018Z,10.13
2018-02-02T00:46:29.671Z,8.90
2018-02-02T00:48:57.630Z,10.05
2018-02-02T00:51:30.975Z,9.23
2018-02-02T00:53:59.713Z,8.45
2018-02-02T00:56:27.608Z,10.20
2018-02-02T00:58:55.592Z,8.52
2018-02-02T01:01:23.480Z,9.68
2018-02-02T01:03:51.449Z,9.82
2018-02-02T01:06:19.391Z,8.05
2018-02-02T01:08:47.297Z,9.00
2018-02-02T01:11:15.235Z,8.43
2018-02-02T01:13:43.136Z,9.93
2018-02-02T01:16:11.087Z,10.40
2018-02-02T01:18:39.801Z,11.07
2018-02-02T01:21:07.763Z,11.65
2018-02-02T01:23:35.676Z,12.18
2018-02-02T01:26:03.628Z,11.70
2018-02-02T01:28:31.681Z,14.25
2018-02-02T01:30:59.654Z,12.25
2018-02-02T01:33:27.565Z,12.13
2018-02-02T01:35:55.517Z,12.35
2018-02-02T01:38:23.424Z,12.63
2018-02-02T01:40:52.164Z,14.05
2018-02-02T01:43:20.061Z,13.48
2018-02-02T01:45:48.012Z,12.73
2018-02-02T01:48:22.087Z,13.25
2018-02-02T01:50:50.044Z,13.43
2018-02-02T01:53:17.938Z,12.52
2018-02-02T01:55:45.910Z,12.90
2018-02-02T01:58:13.803Z,14.38
2018-02-02T02:00:41.781Z,14.35
2018-02-02T02:03:09.682Z,12.77
2018-02-02T02:05:37.622Z,12.80
2018-02-02T02:08:05.514Z,10.95
2018-02-02T02:10:33.459Z,11.93
2018-02-02T02:13:01.373Z,11.48
2018-02-02T02:15:29.401Z,12.82
2018-02-02T02:17:57.307Z,11.00
2018-02-02T02:20:25.259Z,10.95
2018-02-02T02:22:53.151Z,10.40
2018-02-02T02:25:21.884Z,10.23
2018-02-02T02:27:49.789Z,12.13
2018-02-02T02:30:17.742Z,10.27
2018-02-02T02:32:45.655Z,11.30
2018-02-02T02:35:13.612Z,9.63
2018-02-02T02:37:41.529Z,10.43
2018-02-02T02:40:09.484Z,10.23
2018-02-02T02:42:37.399Z,9.95
2018-02-02T02:45:05.416Z,9.30
2018-02-02T02:47:33.331Z,10.68
2018-02-02T02:50:01.285Z,10.32
2018-02-02T02:52:29.197Z,9.02
2018-02-02T02:54:57.933Z,10.18
2018-02-02T02:57:25.830Z,10.93
2018-02-02T02:59:53.776Z,8.82
2018-02-02T03:02:21.678Z,9.05
2018-02-02T03:04:49.624Z,9.55
2018-02-02T03:07:17.742Z,9.07
2018-02-02T03:09:45.713Z,8.45
2018-02-02T03:12:13.707Z,9.60
2018-02-02T03:14:41.663Z,9.65
2018-02-02T03:17:09.565Z,8.93
2018-02-02T03:19:37.572Z,9.00
2018-02-02T03:22:05.468Z,9.65
2018-02-02T03:24:33.382Z,8.32
2018-02-02T03:27:01.339Z,8.23
2018-02-02T03:29:29.216Z,9.50
2018-02-02T03:31:57.169Z,9.30
2018-02-02T03:34:28.131Z,8.07
2018-02-02T03:37:00.521Z,8.70
2018-02-02T03:39:31.164Z,9.00
2018-02-02T03:42:02.032Z,9.50
2018-02-02T03:44:32.772Z,8.77
2018-02-02T03:47:03.634Z,7.90
2018-02-02T03:49:31.733Z,7.40
2018-02-02T03:51:59.702Z,7.55
2018-02-02T03:54:27.596Z,7.85
2018-02-02T03:56:55.561Z,7.32
2018-02-02T03:59:24.270Z,7.60
2018-02-02T04:01:52.248Z,9.95
2018-02-02T04:04:20.153Z,8.10
2018-02-02T04:06:49.365Z,8.40
2018-02-02T04:09:17.312Z,7.82
2018-02-02T04:11:45.306Z,9.00
2018-02-02T04:14:13.267Z,8.23
2018-02-02T04:16:41.225Z,8.75
2018-02-02T04:19:09.128Z,7.70
2018-02-02T04:21:37.087Z,7.03
2018-02-02T04:24:05.013Z,9.40
2018-02-02T04:26:32.963Z,7.47
2018-02-02T04:29:00.866Z,7.90
2018-02-02T04:31:28.829Z,8.00
2018-02-02T04:33:56.772Z,9.70
2018-02-02T04:36:27.540Z,12.55
2018-02-02T04:38:55.566Z,8.77
2018-02-02T04:41:23.463Z,8.75
2018-02-02T04:43:51.426Z,8.65
2018-02-02T04:46:19.382Z,9.18
2018-02-02T04:48:48.161Z,9.80
2018-02-02T04:51:16.068Z,8.65
2018-02-02T04:53:44.048Z,10.05
2018-02-02T04:56:11.981Z,9.52
2018-02-02T04:58:39.929Z,8.27
2018-02-02T05:01:07.838Z,9.65
2018-02-02T05:03:35.784Z,9.65
2018-02-02T05:06:03.957Z,8.98
2018-02-02T05:08:32.697Z,10.20
2018-02-02T05:11:00.615Z,9.45
2018-02-02T05:13:28.611Z,10.02
2018-02-02T05:15:57.081Z,9.32
2018-02-02T05:18:25.068Z,9.98
2018-02-02T05:20:53.091Z,8.75
2018-02-02T05:23:24.823Z,9.90
2018-02-02T05:25:56.938Z,9.82
2018-02-02T05:28:28.977Z,9.95
2018-02-02T05:31:01.692Z,10.00
2018-02-02T05:33:34.145Z,10.65
2018-02-02T05:36:07.600Z,10.90
2018-02-02T05:38:39.414Z,10.90
2018-02-02T05:41:12.463Z,9.32
2018-02-02T05:43:43.382Z,10.07
2018-02-02T05:46:15.597Z,10.05
2018-02-02T05:48:43.718Z,9.85
2018-02-02T05:51:11.666Z,10.25
2018-02-02T05:53:39.596Z,10.20
2018-02-02T05:56:07.536Z,10.02
2018-02-02T05:58:35.431Z,10.23
2018-02-02T06:01:03.406Z,10.57
2018-02-02T06:03:31.318Z,10.50
2018-02-02T06:05:59.255Z,9.70
2018-02-02T06:08:27.161Z,10.15
2018-02-02T06:10:55.113Z,11.27
2018-02-02T06:13:22.988Z,9.93
2018-02-02T06:15:51.750Z,9.35
2018-02-02T06:18:23.387Z,8.95
2018-02-02T06:20:51.308Z,10.15
2018-02-02T06:23:19.180Z,9.32
2018-02-02T06:25:47.052Z,10.25
2018-02-02T06:28:15.007Z,10.55
2018-02-02T06:30:43.656Z,9.65
2018-02-02T06:33:11.578Z,10.05
2018-02-02T06:35:39.446Z,9.60
2018-02-02T06:38:07.382Z,9.88
2018-02-02T06:40:35.277Z,9.50
2018-02-02T06:43:03.250Z,8.50
2018-02-02T06:45:31.118Z,8.63
2018-02-02T06:47:59.080Z,9.32
2018-02-02T06:50:26.947Z,9.85
2018-02-02T06:52:55.648Z,10.23
2018-02-02T06:55:23.533Z,8.65
2018-02-02T06:57:51.452Z,9.13
2018-02-02T07:00:19.322Z,8.60
2018-02-02T07:02:47.254Z,9.30
2018-02-02T07:05:15.111Z,7.35
2018-02-02T07:07:43.023Z,8.60
2018-02-02T07:10:10.892Z,8.73
2018-02-02T07:12:38.813Z,7.75
2018-02-02T07:15:06.682Z,9.30
2018-02-02T07:17:34.680Z,7.60
2018-02-02T07:20:02.617Z,7.78
2018-02-02T07:22:30.490Z,8.30
2018-02-02T07:24:58.477Z,6.53
2018-02-02T07:27:26.356Z,7.35
2018-02-02T07:29:54.280Z,6.55
2018-02-02T07:32:22.151Z,7.40
2018-02-02T07:34:50.066Z,6.97
2018-02-02T07:37:17.936Z,7.20
2018-02-02T07:39:45.833Z,6.47
2018-02-02T07:42:14.465Z,5.97
2018-02-02T07:44:42.405Z,6.30
2018-02-02T07:47:14.003Z,6.45
2018-02-02T07:49:41.947Z,6.90
2018-02-02T07:52:09.818Z,7.10
2018-02-02T07:54:37.738Z,7.60
2018-02-02T07:57:05.648Z,6.90
2018-02-02T07:59:33.525Z,8.57
2018-02-02T08:02:01.477Z,8.30
2018-02-02T08:04:30.121Z,8.30
2018-02-02T08:06:58.052Z,9.02
2018-02-02T08:09:25.925Z,9.25
2018-02-02T08:11:53.858Z,8.32
2018-02-02T08:14:21.749Z,7.55
2018-02-02T08:17:02.802Z,8.27
2018-02-02T08:19:30.684Z,9.02
2018-02-02T08:21:58.613Z,7.90
2018-02-02T08:24:26.480Z,7.43
2018-02-02T08:26:54.401Z,8.32
2018-02-02T08:29:22.273Z,7.60
2018-02-02T08:31:50.188Z,7.50
2018-02-02T08:34:18.061Z,8.85
2018-02-02T08:36:45.984Z,7.60
2018-02-02T08:39:13.847Z,7.43
2018-02-02T08:41:41.754Z,7.57
2018-02-02T08:44:09.624Z,6.03
2018-02-02T08:46:37.616Z,6.85
2018-02-02T08:49:06.251Z,6.40
2018-02-02T08:51:34.152Z,5.40
2018-02-02T08:54:02.019Z,6.60
2018-02-02T08:56:29.944Z,5.55
2018-02-02T08:58:57.810Z,5.40
2018-02-02T09:01:31.239Z,5.25
2018-02-02T09:03:59.113Z,6.12
2018-02-02T09:06:26.986Z,6.05
2018-02-02T09:08:54.891Z,5.25
2018-02-02T09:11:22.763Z,5.55
2018-02-02T09:13:50.683Z,5.32
2018-02-02T09:16:19.100Z,5.10
2018-02-02T09:18:47.781Z,4.95
2018-02-02T09:21:16.435Z,5.53
2018-02-02T09:23:44.359Z,5.97
2018-02-02T09:26:12.230Z,6.85
2018-02-02T09:28:40.155Z,6.05
2018-02-02T09:31:08.062Z,5.97
2018-02-02T09:33:36.027Z,6.60
2018-02-02T09:36:03.902Z,6.00
2018-02-02T09:38:31.816Z,6.00
2018-02-02T09:40:59.693Z,6.10
2018-02-02T09:43:27.637Z,7.10
2018-02-02T09:45:55.547Z,5.65
2018-02-02T09:48:23.453Z,7.18
2018-02-02T09:50:51.320Z,7.15
2018-02-02T09:53:19.243Z,6.62
2018-02-02T09:55:47.112Z,7.95
2018-02-02T09:58:15.061Z,7.32
2018-02-02T10:00:42.967Z,7.37
2018-02-02T10:03:10.815Z,8.00
2018-02-02T10:05:38.752Z,7.40
2018-02-02T10:08:06.618Z,6.90
2018-02-02T10:10:34.525Z,7.18
2018-02-02T10:13:02.392Z,7.45
2018-02-02T10:15:30.310Z,7.22
2018-02-02T10:17:58.224Z,6.85
2018-02-02T10:20:26.161Z,6.68
2018-02-02T10:22:54.217Z,6.57
2018-02-02T10:25:22.108Z,7.35
2018-02-02T10:27:50.070Z,6.10
2018-02-02T10:30:17.970Z,7.03
2018-02-02T10:32:47.365Z,7.47
2018-02-02T10:35:16.182Z,6.07
2018-02-02T10:37:44.868Z,7.03
2018-02-02T10:40:15.334Z,6.25
2018-02-02T10:42:47.009Z,5.85
2018-02-02T10:45:14.920Z,6.00
2018-02-02T10:47:42.764Z,5.37
2018-02-02T10:50:10.688Z,6.90
2018-02-02T10:52:38.750Z,6.22
2018-02-02T10:55:06.659Z,6.22
2018-02-02T10:57:34.517Z,6.32
2018-02-02T11:00:02.476Z,5.93
2018-02-02T11:02:35.819Z,5.97
2018-02-02T11:05:03.838Z,5.78
2018-02-02T11:07:31.693Z,4.03
2018-02-02T11:09:59.550Z,5.15
2018-02-02T11:12:27.455Z,4.97
2018-02-02T11:14:55.316Z,4.40
2018-02-02T11:17:23.257Z,4.82
2018-02-02T11:19:51.932Z,4.87
2018-02-02T11:22:20.618Z,4.37
2018-02-02T11:24:48.496Z,4.40
2018-02-02T11:27:19.593Z,6.45
2018-02-02T11:29:47.554Z,4.97
2018-02-02T11:32:15.510Z,4.85
2018-02-02T11:34:43.428Z,5.05
2018-02-02T11:37:11.340Z,4.35
2018-02-02T11:39:39.199Z,5.12
2018-02-02T11:42:07.136Z,4.40
2018-02-02T11:44:35.058Z,5.47
2018-02-02T11:47:03.824Z,4.65
2018-02-02T11:49:31.698Z,5.20
2018-02-02T11:51:59.630Z,5.93
2018-02-02T11:54:27.500Z,5.87
2018-02-02T11:56:55.448Z,5.07
2018-02-02T11:59:23.426Z,5.87
2018-02-02T12:01:51.454Z,5.72
2018-02-02T12:04:20.197Z,5.47
2018-02-02T12:06:49.020Z,5.00
2018-02-02T12:09:16.980Z,4.85
2018-02-02T12:11:45.028Z,4.50
2018-02-02T12:14:12.965Z,4.20
2018-02-02T12:16:41.138Z,4.15
2018-02-02T12:19:09.141Z,3.60
2018-02-02T12:21:42.708Z,3.97
2018-02-02T12:24:16.302Z,3.92
2018-02-02T12:29:55.555Z,4.25
2018-02-02T12:32:29.014Z,4.12
2018-02-02T12:35:01.696Z,4.20
2018-02-02T12:37:30.571Z,3.90
2018-02-02T12:39:58.752Z,3.90
2018-02-02T12:42:27.526Z,3.67
2018-02-02T12:44:55.587Z,3.75
2018-02-02T12:47:23.539Z,3.62
2018-02-02T12:50:03.206Z,3.08
2018-02-02T12:52:31.209Z,3.95
2018-02-02T12:54:59.409Z,4.35
2018-02-02T12:57:27.457Z,5.03
2018-02-02T12:59:55.584Z,3.75
2018-02-02T13:02:24.496Z,4.45
2018-02-02T13:04:52.524Z,4.30
2018-02-02T13:07:20.526Z,4.30
2018-02-02T13:09:48.603Z,4.60
2018-02-02T13:12:16.590Z,4.95
2018-02-02T13:14:44.689Z,5.40
2018-02-02T13:17:12.770Z,4.10
2018-02-02T13:19:40.782Z,5.18
2018-02-02T13:22:08.903Z,4.57
2018-02-02T13:24:36.968Z,6.00
2018-02-02T13:27:12.808Z,8.80
2018-02-02T13:29:40.894Z,6.43
2018-02-02T13:32:09.113Z,4.85
2018-02-02T13:34:37.135Z,4.35
2018-02-02T13:37:05.339Z,4.40
2018-02-02T13:39:34.173Z,4.62
2018-02-02T13:42:02.227Z,3.90
2018-02-02T13:44:30.202Z,4.22
2018-02-02T13:46:58.328Z,4.30
2018-02-02T13:49:27.223Z,4.10
2018-02-02T13:51:56.069Z,5.05
2018-02-02T13:54:24.113Z,4.10
2018-02-02T13:56:53.392Z,3.28
2018-02-02T13:59:21.387Z,3.87
2018-02-02T14:01:49.634Z,2.72
2018-02-02T14:04:17.596Z,2.95
2018-02-02T14:06:45.597Z,3.40
2018-02-02T14:09:13.585Z,3.58
2018-02-02T14:11:41.566Z,3.25
2018-02-02T14:14:09.647Z,3.37
2018-02-02T14:16:37.676Z,4.40
2018-02-02T14:19:05.730Z,4.10
2018-02-02T14:21:34.475Z,3.60
2018-02-02T14:24:02.547Z,3.83
2018-02-02T14:26:30.600Z,3.20
2018-02-02T14:28:58.723Z,3.22
2018-02-02T14:31:26.785Z,2.80
2018-02-02T14:33:54.869Z,3.40
2018-02-02T14:36:22.842Z,3.42
2018-02-02T14:38:50.940Z,3.12
2018-02-02T14:41:18.946Z,3.22
2018-02-02T14:43:47.241Z,3.78
2018-02-02T14:46:15.250Z,3.55
2018-02-02T14:48:43.312Z,5.57
2018-02-02T14:51:11.305Z,4.20
2018-02-02T14:53:39.380Z,3.65
2018-02-02T14:56:10.770Z,2.85
2018-02-02T14:58:38.794Z,3.08
2018-02-02T15:01:07.561Z,3.00
2018-02-02T15:03:35.563Z,3.10
2018-02-02T15:06:03.541Z,3.10
2018-02-02T15:08:31.535Z,2.80
2018-02-02T15:10:59.568Z,3.10
2018-02-02T15:13:27.689Z,2.42
2018-02-02T15:15:55.690Z,2.70
2018-02-02T15:18:23.725Z,2.70
2018-02-02T15:20:51.736Z,2.95
2018-02-02T15:23:21.064Z,2.85
2018-02-02T15:25:49.090Z,3.20
2018-02-02T15:28:17.076Z,2.62
2018-02-02T15:30:45.119Z,3.10
2018-02-02T15:33:13.141Z,2.80
2018-02-02T15:35:41.155Z,2.28
2018-02-02T15:38:09.335Z,1.80
2018-02-02T15:40:37.371Z,2.03
2018-02-02T15:43:05.339Z,2.30
2018-02-02T15:45:33.357Z,2.20
2018-02-02T15:48:01.411Z,2.00
2018-02-02T15:50:29.562Z,1.80
2018-02-02T15:52:57.550Z,2.40
2018-02-02T15:55:25.592Z,2.30
2018-02-02T15:57:53.630Z,1.95
2018-02-02T16:00:21.678Z,1.85
2018-02-02T16:02:50.032Z,1.90
2018-02-02T16:05:18.054Z,2.42
2018-02-02T16:07:46.133Z,2.53
2018-02-02T16:10:14.185Z,2.00
2018-02-02T16:12:42.139Z,1.95
2018-02-02T16:15:10.140Z,2.20
2018-02-02T16:17:38.170Z,1.67
2018-02-02T16:20:06.167Z,2.47
2018-02-02T16:22:34.230Z,2.72
2018-02-02T16:25:02.283Z,2.85
2018-02-02T16:27:30.316Z,1.90
2018-02-02T16:29:59.052Z,1.40
2018-02-02T16:32:27.155Z,1.25
2018-02-02T16:34:55.140Z,1.95
2018-02-02T16:37:24.044Z,2.30
2018-02-02T16:39:53.440Z,53.92
2018-02-02T16:42:23.183Z,10.45
2018-02-02T16:44:51.669Z,27.73
2018-02-02T16:47:19.951Z,21.95
2018-02-02T16:49:48.299Z,17.05
2018-02-02T16:52:17.272Z,28.30
2018-02-02T16:54:46.373Z,3.17
2018-02-02T16:57:16.588Z,2.65
2018-02-02T16:59:44.811Z,1.87
2018-02-02T17:02:12.811Z,1.75
2018-02-02T17:04:40.806Z,2.10
2018-02-02T17:07:08.894Z,2.05
2018-02-02T17:09:36.931Z,2.03
2018-02-02T17:12:05.014Z,1.92
2018-02-02T17:14:33.108Z,1.90
2018-02-02T17:17:01.104Z,2.70
2018-02-02T17:19:29.163Z,2.40
2018-02-02T17:21:57.151Z,2.92
2018-02-02T17:24:25.166Z,3.05
2018-02-02T17:26:53.137Z,2.83
2018-02-02T17:29:21.204Z,2.80
2018-02-02T17:31:49.233Z,2.85
2018-02-02T17:34:17.314Z,2.60
2018-02-02T17:36:45.340Z,3.15
2018-02-02T17:39:13.391Z,3.50
2018-02-02T17:41:44.131Z,3.35
2018-02-02T17:44:12.283Z,3.90
2018-02-02T17:46:40.262Z,6.95
2018-02-02T17:49:08.294Z,4.68
2018-02-02T17:51:37.024Z,5.47
2018-02-02T17:54:05.012Z,5.07
2018-02-02T17:56:33.123Z,9.32
2018-02-02T17:59:01.964Z,7.15
2018-02-02T18:01:33.543Z,5.97
2018-02-02T18:04:01.591Z,5.68
2018-02-02T18:06:29.729Z,10.13
2018-02-02T18:08:58.097Z,13.02
2018-02-02T18:11:26.125Z,8.63
2018-02-02T18:13:54.256Z,25.62
2018-02-02T18:16:22.856Z,6.60
2018-02-02T18:18:51.017Z,5.80
2018-02-02T18:21:19.023Z,6.07
2018-02-02T18:23:46.990Z,7.07
2018-02-02T18:26:15.041Z,8.23
2018-02-02T18:28:43.033Z,7.05
2018-02-02T18:31:11.957Z,8.35
2018-02-02T18:33:39.964Z,10.20
2018-02-02T18:36:07.998Z,10.48
2018-02-02T18:38:36.021Z,9.68
2018-02-02T18:41:04.091Z,11.50
2018-02-02T18:43:32.054Z,12.13
2018-02-02T18:46:00.101Z,13.18
2018-02-02T18:48:28.077Z,13.38
2018-02-02T18:50:56.900Z,12.93
2018-02-02T18:53:24.896Z,14.30
2018-02-02T18:55:52.960Z,13.98
2018-02-02T18:58:20.906Z,15.38
2018-02-02T19:00:48.897Z,15.10
2018-02-02T19:03:17.605Z,12.07
2018-02-02T19:05:45.617Z,11.82
2018-02-02T19:08:14.741Z,10.23
2018-02-02T19:10:42.756Z,11.20
2018-02-02T19:13:10.683Z,9.63
2018-02-02T19:15:38.670Z,9.18
2018-02-02T19:18:06.623Z,10.05
2018-02-02T19:20:34.660Z,10.82
2018-02-02T19:23:02.636Z,9.88
2018-02-02T19:25:30.618Z,11.77
2018-02-02T19:27:58.599Z,10.15
2018-02-02T19:30:26.636Z,10.65
2018-02-02T19:32:55.387Z,11.95
2018-02-02T19:35:23.409Z,11.73
2018-02-02T19:37:55.365Z,11.73
2018-02-02T19:40:24.200Z,12.40
2018-02-02T19:42:52.236Z,13.88
2018-02-02T19:45:20.309Z,13.32
2018-02-02T19:47:48.459Z,13.20
2018-02-02T19:50:17.246Z,12.65
2018-02-02T19:52:45.259Z,12.27
2018-02-02T19:55:13.300Z,12.48
2018-02-02T19:57:43.866Z,13.05
2018-02-02T20:00:11.890Z,12.20
2018-02-02T20:02:39.868Z,12.43
2018-02-02T20:05:07.905Z,13.05
2018-02-02T20:07:35.943Z,13.88
2018-02-02T20:10:03.999Z,14.25
2018-02-02T20:12:32.098Z,14.80
2018-02-02T20:15:00.126Z,14.80
2018-02-02T20:17:28.084Z,13.77
2018-02-02T20:19:56.141Z,14.85
2018-02-02T20:22:24.101Z,15.00
2018-02-02T20:24:52.129Z,15.07
2018-02-02T20:27:20.151Z,17.42
2018-02-02T20:29:48.214Z,16.87
2018-02-02T20:32:16.437Z,17.95
2018-02-02T20:34:44.396Z,18.23
2018-02-02T20:37:12.438Z,19.75
2018-02-02T20:39:40.439Z,20.70
2018-02-02T20:42:08.449Z,19.15
2018-02-02T20:44:36.487Z,20.35
2018-02-02T20:47:04.519Z,20.85
2018-02-02T20:49:32.511Z,23.00
2018-02-02T20:52:00.499Z,19.45
2018-02-02T20:54:28.448Z,22.42
2018-02-02T20:56:57.780Z,24.15
2018-02-02T20:59:25.798Z,23.20
2018-02-02T21:01:53.872Z,23.50
2018-02-02T21:04:21.812Z,24.85
2018-02-02T21:06:49.862Z,26.35
2018-02-02T21:09:17.826Z,27.58
2018-02-02T21:11:45.910Z,25.65
2018-02-02T21:14:14.670Z,26.27
2018-02-02T21:16:42.698Z,25.70
2018-02-02T21:19:10.640Z,27.10
2018-02-02T21:21:39.420Z,26.85
2018-02-02T21:24:07.374Z,25.30
2018-02-02T21:26:35.502Z,28.75
2018-02-02T21:29:04.458Z,27.00
2018-02-02T21:31:32.484Z,28.58
2018-02-02T21:34:00.472Z,31.85
2018-02-02T21:36:29.434Z,27.35
2018-02-02T21:38:57.483Z,27.13
2018-02-02T21:41:25.494Z,27.77
2018-02-02T21:43:53.428Z,28.33
2018-02-02T21:46:22.169Z,29.20
2018-02-02T21:48:50.175Z,29.40
2018-02-02T21:51:18.984Z,29.52
2018-02-02T21:53:46.944Z,30.45
2018-02-02T21:56:16.942Z,31.23
2018-02-02T21:58:44.911Z,29.70
2018-02-02T22:01:13.728Z,30.30
2018-02-02T22:03:41.727Z,28.83
2018-02-02T22:06:09.762Z,27.58
2018-02-02T22:08:37.716Z,29.60
2018-02-02T22:11:06.547Z,27.45
2018-02-02T22:13:34.510Z,28.12
2018-02-02T22:16:02.576Z,27.50
2018-02-02T22:18:30.549Z,27.13
2018-02-02T22:20:58.633Z,24.85
2018-02-02T22:23:26.638Z,26.30
2018-02-02T22:25:54.705Z,27.20
2018-02-02T22:28:22.820Z,26.45
2018-02-02T22:30:51.652Z,27.05
2018-02-02T22:33:19.635Z,28.08
2018-02-02T22:35:47.714Z,25.00
2018-02-02T22:38:15.694Z,25.00
2018-02-02T22:40:43.778Z,25.05
2018-02-02T22:43:11.818Z,26.98
2018-02-02T22:45:39.854Z,25.92
2018-02-02T22:48:07.992Z,26.58
2018-02-02T22:50:36.026Z,25.02
2018-02-02T22:53:04.076Z,26.37
2018-02-02T22:55:32.113Z,28.50
2018-02-02T22:58:00.141Z,26.73
2018-02-02T23:00:28.233Z,25.77
2018-02-02T23:02:56.208Z,24.17
2018-02-02T23:05:24.266Z,26.05
2018-02-02T23:07:52.378Z,25.50
2018-02-02T23:10:21.550Z,27.65
2018-02-02T23:12:49.659Z,25.60
2018-02-02T23:15:21.046Z,26.25
2018-02-02T23:17:52.191Z,24.98
2018-02-02T23:20:24.011Z,26.52
2018-02-02T23:22:54.044Z,25.08
2018-02-02T23:25:24.150Z,25.35
2018-02-02T23:27:54.185Z,26.20
2018-02-02T23:30:25.213Z,27.58
2018-02-02T23:32:53.406Z,26.87
2018-02-02T23:35:23.074Z,24.37
2018-02-02T23:37:53.989Z,24.12
2018-02-02T23:40:22.026Z,24.23
2018-02-02T23:42:51.741Z,26.42
2018-02-02T23:45:19.689Z,24.55
2018-02-02T23:47:47.714Z,25.20
2018-02-02T23:50:15.717Z,25.58
2018-02-02T23:52:43.777Z,24.50
2018-02-02T23:55:11.712Z,26.58
2018-02-02T23:57:40.778Z,28.02
